sensor_id;sensor_type;location;lat;lon;timestamp;pressure;altitude;pressure_sealevel;temperature;humidity
64739;BME280;51175;51.186;0.276;2023-09-19T00:00:31;100505.38;;;19.68;57.13
64739;BME280;51175;51.186;0.276;2023-09-19T00:01:03;100494.66;;;19.68;57.26
64739;BME280;51175;51.186;0.276;2023-09-19T00:01:36;100500.81;;;19.69;57.07
64739;BME280;51175;51.186;0.276;2023-09-19T00:02:06;100489.31;;;19.68;57.04
64739;BME280;51175;51.186;0.276;2023-09-19T00:02:38;100498.13;;;19.69;57.05
64739;BME280;51175;51.186;0.276;2023-09-19T00:03:10;100500.03;;;19.68;57.13
64739;BME280;51175;51.186;0.276;2023-09-19T00:03:41;100495.78;;;19.67;57.24
64739;BME280;51175;51.186;0.276;2023-09-19T00:04:12;100493.88;;;19.68;56.91
64739;BME280;51175;51.186;0.276;2023-09-19T00:04:44;100493.88;;;19.68;57.06
64739;BME280;51175;51.186;0.276;2023-09-19T00:05:15;100501.13;;;19.67;57.17
64739;BME280;51175;51.186;0.276;2023-09-19T00:05:45;100498.47;;;19.67;57.25
64739;BME280;51175;51.186;0.276;2023-09-19T00:06:15;100494.19;;;19.66;57.20
64739;BME280;51175;51.186;0.276;2023-09-19T00:06:46;100500.34;;;19.67;57.05
64739;BME280;51175;51.186;0.276;2023-09-19T00:07:17;100496.06;;;19.66;56.93
64739;BME280;51175;51.186;0.276;2023-09-19T00:07:47;100499.53;;;19.66;56.99
64739;BME280;51175;51.186;0.276;2023-09-19T00:08:18;100494.97;;;19.67;57.15
64739;BME280;51175;51.186;0.276;2023-09-19T00:08:53;100498.75;;;19.66;56.93
64739;BME280;51175;51.186;0.276;2023-09-19T00:09:25;100489.94;;;19.65;56.89
64739;BME280;51175;51.186;0.276;2023-09-19T00:09:57;100486.47;;;19.65;57.19
64739;BME280;51175;51.186;0.276;2023-09-19T00:10:28;100492.63;;;19.65;56.87
64739;BME280;51175;51.186;0.276;2023-09-19T00:11:01;100495.31;;;19.65;56.79
64739;BME280;51175;51.186;0.276;2023-09-19T00:11:33;100492.63;;;19.65;56.92
64739;BME280;51175;51.186;0.276;2023-09-19T00:12:06;100491.03;;;19.64;56.91
64739;BME280;51175;51.186;0.276;2023-09-19T00:12:36;100490.28;;;19.64;57.12
64739;BME280;51175;51.186;0.276;2023-09-19T00:13:07;100496.38;;;19.64;57.03
64739;BME280;51175;51.186;0.276;2023-09-19T00:13:38;100496.38;;;19.64;56.91
64739;BME280;51175;51.186;0.276;2023-09-19T00:14:08;100496.38;;;19.64;57.01
64739;BME280;51175;51.186;0.276;2023-09-19T00:14:39;100498.31;;;19.64;57.14
64739;BME280;51175;51.186;0.276;2023-09-19T00:15:10;100498.31;;;19.64;56.95
64739;BME280;51175;51.186;0.276;2023-09-19T00:15:44;100506.34;;;19.64;56.93
64739;BME280;51175;51.186;0.276;2023-09-19T00:16:20;100500.19;;;19.63;56.82
64739;BME280;51175;51.186;0.276;2023-09-19T00:16:51;100493.25;;;19.62;57.13
64739;BME280;51175;51.186;0.276;2023-09-19T00:17:21;100492.16;;;19.63;56.91
64739;BME280;51175;51.186;0.276;2023-09-19T00:17:52;100498.63;;;19.62;56.93
64739;BME280;51175;51.186;0.276;2023-09-19T00:18:22;100499.38;;;19.63;57.01
64739;BME280;51175;51.186;0.276;2023-09-19T00:18:54;100503.19;;;19.62;56.92
64739;BME280;51175;51.186;0.276;2023-09-19T00:19:25;100495.94;;;19.62;57.30
64739;BME280;51175;51.186;0.276;2023-09-19T00:19:56;100492.47;;;19.62;57.10
64739;BME280;51175;51.186;0.276;2023-09-19T00:20:26;100491.69;;;19.61;57.01
64739;BME280;51175;51.186;0.276;2023-09-19T00:21:00;100491.69;;;19.61;57.00
64739;BME280;51175;51.186;0.276;2023-09-19T00:21:34;100505.06;;;19.61;56.88
64739;BME280;51175;51.186;0.276;2023-09-19T00:22:04;100492.47;;;19.62;57.30
64739;BME280;51175;51.186;0.276;2023-09-19T00:22:35;100491.69;;;19.61;57.14
64739;BME280;51175;51.186;0.276;2023-09-19T00:23:06;100491.69;;;19.61;57.41
64739;BME280;51175;51.186;0.276;2023-09-19T00:23:38;100501.63;;;19.60;57.33
64739;BME280;51175;51.186;0.276;2023-09-19T00:24:11;100498.94;;;19.60;57.49
64739;BME280;51175;51.186;0.276;2023-09-19T00:24:42;100497.34;;;19.59;57.04
64739;BME280;51175;51.186;0.276;2023-09-19T00:25:12;100498.94;;;19.60;57.26
64739;BME280;51175;51.186;0.276;2023-09-19T00:25:45;100493.91;;;19.59;57.40
64739;BME280;51175;51.186;0.276;2023-09-19T00:26:15;100498.16;;;19.60;57.34
64739;BME280;51175;51.186;0.276;2023-09-19T00:26:48;100500.84;;;19.60;57.30
64739;BME280;51175;51.186;0.276;2023-09-19T00:27:18;100501.63;;;19.60;57.40
64739;BME280;51175;51.186;0.276;2023-09-19T00:27:49;100498.16;;;19.60;57.21
64739;BME280;51175;51.186;0.276;2023-09-19T00:28:21;100503.50;;;19.60;57.25
64739;BME280;51175;51.186;0.276;2023-09-19T00:28:52;100503.50;;;19.60;57.24
64739;BME280;51175;51.186;0.276;2023-09-19T00:29:23;100500.03;;;19.59;57.14
64739;BME280;51175;51.186;0.276;2023-09-19T00:29:53;100495.47;;;19.60;57.40
64739;BME280;51175;51.186;0.276;2023-09-19T00:30:24;100500.84;;;19.60;57.43
64739;BME280;51175;51.186;0.276;2023-09-19T00:30:54;100498.47;;;19.58;57.29
64739;BME280;51175;51.186;0.276;2023-09-19T00:31:25;100502.72;;;19.59;57.14
64739;BME280;51175;51.186;0.276;2023-09-19T00:31:56;100499.25;;;19.59;57.21
64739;BME280;51175;51.186;0.276;2023-09-19T00:32:27;100503.50;;;19.60;57.15
64739;BME280;51175;51.186;0.276;2023-09-19T00:33:02;100501.16;;;19.58;57.19
64739;BME280;51175;51.186;0.276;2023-09-19T00:33:36;100499.59;;;19.57;57.29
64739;BME280;51175;51.186;0.276;2023-09-19T00:34:06;100500.34;;;19.58;57.29
64739;BME280;51175;51.186;0.276;2023-09-19T00:34:37;100495.00;;;19.58;57.28
64739;BME280;51175;51.186;0.276;2023-09-19T00:35:07;100503.03;;;19.58;57.44
64739;BME280;51175;51.186;0.276;2023-09-19T00:35:49;100499.59;;;19.57;57.48
64739;BME280;51175;51.186;0.276;2023-09-19T00:36:20;100504.16;;;19.57;57.22
64739;BME280;51175;51.186;0.276;2023-09-19T00:36:51;100502.25;;;19.57;57.04
64739;BME280;51175;51.186;0.276;2023-09-19T00:37:24;100498.00;;;19.56;57.11
64739;BME280;51175;51.186;0.276;2023-09-19T00:37:55;100499.91;;;19.56;57.17
64739;BME280;51175;51.186;0.276;2023-09-19T00:38:25;100501.78;;;19.55;57.14
64739;BME280;51175;51.186;0.276;2023-09-19T00:38:57;100502.59;;;19.56;57.33
64739;BME280;51175;51.186;0.276;2023-09-19T00:39:27;100496.44;;;19.55;57.45
64739;BME280;51175;51.186;0.276;2023-09-19T00:39:58;100501.78;;;19.55;57.27
64739;BME280;51175;51.186;0.276;2023-09-19T00:40:28;100495.63;;;19.55;57.22
64739;BME280;51175;51.186;0.276;2023-09-19T00:40:59;100499.13;;;19.55;57.20
64739;BME280;51175;51.186;0.276;2023-09-19T00:41:30;100502.59;;;19.56;57.32
64739;BME280;51175;51.186;0.276;2023-09-19T00:42:00;100492.97;;;19.55;57.35
64739;BME280;51175;51.186;0.276;2023-09-19T00:42:35;100497.56;;;19.54;57.49
64739;BME280;51175;51.186;0.276;2023-09-19T00:43:07;100497.56;;;19.54;57.14
64739;BME280;51175;51.186;0.276;2023-09-19T00:43:38;100487.94;;;19.53;57.06
64739;BME280;51175;51.186;0.276;2023-09-19T00:44:10;100491.41;;;19.54;57.46
64739;BME280;51175;51.186;0.276;2023-09-19T00:44:40;100488.72;;;19.54;57.22
64739;BME280;51175;51.186;0.276;2023-09-19T00:45:12;100491.41;;;19.54;57.35
64739;BME280;51175;51.186;0.276;2023-09-19T00:45:44;100489.84;;;19.53;57.10
64739;BME280;51175;51.186;0.276;2023-09-19T00:46:18;100494.06;;;19.54;56.96
64739;BME280;51175;51.186;0.276;2023-09-19T00:46:49;100492.50;;;19.53;57.19
64739;BME280;51175;51.186;0.276;2023-09-19T00:47:20;100497.88;;;19.53;57.24
64739;BME280;51175;51.186;0.276;2023-09-19T00:47:51;100492.50;;;19.53;57.39
64739;BME280;51175;51.186;0.276;2023-09-19T00:48:22;100489.03;;;19.52;57.36
64739;BME280;51175;51.186;0.276;2023-09-19T00:48:53;100490.94;;;19.52;57.08
64739;BME280;51175;51.186;0.276;2023-09-19T00:49:23;100489.03;;;19.52;57.35
64739;BME280;51175;51.186;0.276;2023-09-19T00:49:56;100494.41;;;19.52;57.64
64739;BME280;51175;51.186;0.276;2023-09-19T00:50:27;100488.25;;;19.52;57.41
64739;BME280;51175;51.186;0.276;2023-09-19T00:51:02;100489.03;;;19.52;57.17
64739;BME280;51175;51.186;0.276;2023-09-19T00:51:34;100493.59;;;19.52;57.37
64739;BME280;51175;51.186;0.276;2023-09-19T00:52:06;100494.41;;;19.52;57.54
64739;BME280;51175;51.186;0.276;2023-09-19T00:52:38;100490.94;;;19.52;57.51
64739;BME280;51175;51.186;0.276;2023-09-19T00:53:09;100488.25;;;19.52;57.31
64739;BME280;51175;51.186;0.276;2023-09-19T00:53:43;100489.34;;;19.51;57.45
64739;BME280;51175;51.186;0.276;2023-09-19T00:54:16;100491.25;;;19.50;57.34
64739;BME280;51175;51.186;0.276;2023-09-19T00:54:48;100485.88;;;19.50;57.16
64739;BME280;51175;51.186;0.276;2023-09-19T00:55:19;100488.56;;;19.50;57.46
64739;BME280;51175;51.186;0.276;2023-09-19T00:55:52;100492.03;;;19.51;57.25
64739;BME280;51175;51.186;0.276;2023-09-19T00:56:23;100483.22;;;19.50;57.46
64739;BME280;51175;51.186;0.276;2023-09-19T00:56:53;100488.56;;;19.50;57.56
64739;BME280;51175;51.186;0.276;2023-09-19T00:57:24;100496.59;;;19.50;57.28
64739;BME280;51175;51.186;0.276;2023-09-19T00:57:56;100495.84;;;19.50;57.55
64739;BME280;51175;51.186;0.276;2023-09-19T00:58:27;100485.88;;;19.50;57.53
64739;BME280;51175;51.186;0.276;2023-09-19T00:59:02;100491.25;;;19.50;57.58
64739;BME280;51175;51.186;0.276;2023-09-19T00:59:33;100490.47;;;19.50;57.43
64739;BME280;51175;51.186;0.276;2023-09-19T01:00:05;100485.88;;;19.50;57.58
64739;BME280;51175;51.186;0.276;2023-09-19T01:00:38;100493.94;;;19.50;57.46
64739;BME280;51175;51.186;0.276;2023-09-19T01:01:09;100492.34;;;19.49;57.37
64739;BME280;51175;51.186;0.276;2023-09-19T01:01:42;100491.56;;;19.48;57.54
64739;BME280;51175;51.186;0.276;2023-09-19T01:02:16;100492.34;;;19.49;57.57
64739;BME280;51175;51.186;0.276;2023-09-19T01:02:46;100490.81;;;19.48;57.34
64739;BME280;51175;51.186;0.276;2023-09-19T01:03:17;100490.47;;;19.50;57.47
64739;BME280;51175;51.186;0.276;2023-09-19T01:03:48;100488.88;;;19.48;57.67
64739;BME280;51175;51.186;0.276;2023-09-19T01:04:19;100490.81;;;19.48;57.62
64739;BME280;51175;51.186;0.276;2023-09-19T01:04:50;100496.91;;;19.48;57.73
64739;BME280;51175;51.186;0.276;2023-09-19T01:05:21;100491.56;;;19.48;57.50
64739;BME280;51175;51.186;0.276;2023-09-19T01:05:54;100492.34;;;19.49;57.25
64739;BME280;51175;51.186;0.276;2023-09-19T01:06:24;100494.56;;;19.47;57.51
64739;BME280;51175;51.186;0.276;2023-09-19T01:06:54;100497.25;;;19.47;57.59
64739;BME280;51175;51.186;0.276;2023-09-19T01:07:26;100502.59;;;19.47;57.35
64739;BME280;51175;51.186;0.276;2023-09-19T01:07:57;100504.19;;;19.48;57.50
64739;BME280;51175;51.186;0.276;2023-09-19T01:08:27;100491.88;;;19.47;57.21
64739;BME280;51175;51.186;0.276;2023-09-19T01:08:59;100502.59;;;19.47;57.25
64739;BME280;51175;51.186;0.276;2023-09-19T01:09:30;100499.16;;;19.46;57.41
64739;BME280;51175;51.186;0.276;2023-09-19T01:10:05;100506.38;;;19.46;57.47
64739;BME280;51175;51.186;0.276;2023-09-19T01:10:37;100498.34;;;19.46;57.28
64739;BME280;51175;51.186;0.276;2023-09-19T01:11:30;100497.56;;;19.45;57.59
64739;BME280;51175;51.186;0.276;2023-09-19T01:12:05;100495.19;;;19.44;57.18
64739;BME280;51175;51.186;0.276;2023-09-19T01:13:48;100493.63;;;19.43;57.45
64739;BME280;51175;51.186;0.276;2023-09-19T01:14:42;100494.75;;;19.42;57.74
64739;BME280;51175;51.186;0.276;2023-09-19T01:15:54;100503.13;;;19.40;57.62
64739;BME280;51175;51.186;0.276;2023-09-19T01:16:35;100504.66;;;19.41;57.82
64739;BME280;51175;51.186;0.276;2023-09-19T01:17:27;100504.19;;;19.39;57.54
64739;BME280;51175;51.186;0.276;2023-09-19T01:18:07;100501.53;;;19.39;57.81
64739;BME280;51175;51.186;0.276;2023-09-19T01:20:06;100500.59;;;19.35;57.45
64739;BME280;51175;51.186;0.276;2023-09-19T01:21:28;100501.38;;;19.35;57.81
64739;BME280;51175;51.186;0.276;2023-09-19T01:22:30;100501.72;;;19.34;57.80
64739;BME280;51175;51.186;0.276;2023-09-19T01:23:14;100504.69;;;19.32;57.75
64739;BME280;51175;51.186;0.276;2023-09-19T01:26:07;100505.00;;;19.31;57.76
64739;BME280;51175;51.186;0.276;2023-09-19T01:29:38;100509.75;;;19.25;57.97
64739;BME280;51175;51.186;0.276;2023-09-19T01:30:10;100514.78;;;19.27;57.87
64739;BME280;51175;51.186;0.276;2023-09-19T01:30:44;100509.75;;;19.25;58.13
64739;BME280;51175;51.186;0.276;2023-09-19T01:31:16;100509.75;;;19.25;57.89
64739;BME280;51175;51.186;0.276;2023-09-19T01:31:50;100510.84;;;19.24;57.98
64739;BME280;51175;51.186;0.276;2023-09-19T01:32:24;100513.97;;;19.26;57.64
64739;BME280;51175;51.186;0.276;2023-09-19T01:32:55;100516.66;;;19.26;57.73
64739;BME280;51175;51.186;0.276;2023-09-19T01:33:27;100511.63;;;19.25;57.88
64739;BME280;51175;51.186;0.276;2023-09-19T01:34:01;100508.19;;;19.24;58.05
64739;BME280;51175;51.186;0.276;2023-09-19T01:34:55;100514.31;;;19.25;57.80
64739;BME280;51175;51.186;0.276;2023-09-19T01:35:29;100516.97;;;19.25;58.16
64739;BME280;51175;51.186;0.276;2023-09-19T01:35:59;100512.41;;;19.25;58.09
64739;BME280;51175;51.186;0.276;2023-09-19T01:36:32;100516.97;;;19.25;58.11
64739;BME280;51175;51.186;0.276;2023-09-19T01:37:06;100515.09;;;19.25;57.96
64739;BME280;51175;51.186;0.276;2023-09-19T01:37:36;100515.09;;;19.25;58.02
64739;BME280;51175;51.186;0.276;2023-09-19T01:38:08;100520.44;;;19.25;58.00
64739;BME280;51175;51.186;0.276;2023-09-19T01:38:41;100517.78;;;19.25;58.04
64739;BME280;51175;51.186;0.276;2023-09-19T01:39:12;100520.13;;;19.27;58.02
64739;BME280;51175;51.186;0.276;2023-09-19T01:39:43;100522.81;;;19.27;57.73
64739;BME280;51175;51.186;0.276;2023-09-19T01:40:17;100517.47;;;19.27;57.76
64739;BME280;51175;51.186;0.276;2023-09-19T01:40:57;100510.22;;;19.27;57.63
64739;BME280;51175;51.186;0.276;2023-09-19T01:43:26;100512.41;;;19.25;58.02
64739;BME280;51175;51.186;0.276;2023-09-19T01:43:59;100516.97;;;19.25;57.76
64739;BME280;51175;51.186;0.276;2023-09-19T01:44:40;100516.22;;;19.24;57.98
64739;BME280;51175;51.186;0.276;2023-09-19T01:46:19;100519.97;;;19.23;57.93
64739;BME280;51175;51.186;0.276;2023-09-19T01:46:52;100516.53;;;19.22;57.71
64739;BME280;51175;51.186;0.276;2023-09-19T01:47:34;100516.84;;;19.21;57.96
64739;BME280;51175;51.186;0.276;2023-09-19T01:48:25;100522.19;;;19.21;57.94
64739;BME280;51175;51.186;0.276;2023-09-19T01:49:48;100520.59;;;19.20;58.04
64739;BME280;51175;51.186;0.276;2023-09-19T01:50:30;100520.59;;;19.20;57.97
64739;BME280;51175;51.186;0.276;2023-09-19T01:51:08;100519.03;;;19.19;57.96
64739;BME280;51175;51.186;0.276;2023-09-19T01:51:50;100516.84;;;19.21;58.03
64739;BME280;51175;51.186;0.276;2023-09-19T01:52:22;100516.38;;;19.19;58.01
64739;BME280;51175;51.186;0.276;2023-09-19T01:53:04;100515.25;;;19.20;57.67
64739;BME280;51175;51.186;0.276;2023-09-19T01:53:43;100519.03;;;19.19;58.05
64739;BME280;51175;51.186;0.276;2023-09-19T01:54:18;100521.72;;;19.19;57.88
64739;BME280;51175;51.186;0.276;2023-09-19T01:54:56;100523.59;;;19.18;57.79
64739;BME280;51175;51.186;0.276;2023-09-19T01:55:30;100515.56;;;19.18;57.71
64739;BME280;51175;51.186;0.276;2023-09-19T01:56:08;100515.56;;;19.18;57.98
64739;BME280;51175;51.186;0.276;2023-09-19T01:56:49;100519.03;;;19.19;57.96
64739;BME280;51175;51.186;0.276;2023-09-19T01:57:35;100516.38;;;19.19;57.91
64739;BME280;51175;51.186;0.276;2023-09-19T01:58:33;100517.47;;;19.18;57.99
64739;BME280;51175;51.186;0.276;2023-09-19T01:59:07;100520.16;;;19.18;57.54
64739;BME280;51175;51.186;0.276;2023-09-19T01:59:50;100513.22;;;19.17;57.63
64739;BME280;51175;51.186;0.276;2023-09-19T02:00:23;100512.13;;;19.18;57.91
64739;BME280;51175;51.186;0.276;2023-09-19T02:00:55;100513.22;;;19.17;57.63
64739;BME280;51175;51.186;0.276;2023-09-19T02:01:26;100520.16;;;19.18;57.83
64739;BME280;51175;51.186;0.276;2023-09-19T02:01:58;100514.00;;;19.17;57.88
64739;BME280;51175;51.186;0.276;2023-09-19T02:02:30;100519.38;;;19.17;57.65
64739;BME280;51175;51.186;0.276;2023-09-19T02:03:01;100511.34;;;19.17;57.94
64739;BME280;51175;51.186;0.276;2023-09-19T02:03:34;100508.66;;;19.17;57.72
64739;BME280;51175;51.186;0.276;2023-09-19T02:04:07;100512.13;;;19.18;57.50
64739;BME280;51175;51.186;0.276;2023-09-19T02:04:37;100509.44;;;19.18;57.75
64739;BME280;51175;51.186;0.276;2023-09-19T02:05:08;100508.66;;;19.17;57.35
64739;BME280;51175;51.186;0.276;2023-09-19T02:05:38;100506.78;;;19.18;57.75
64739;BME280;51175;51.186;0.276;2023-09-19T02:06:14;100505.19;;;19.17;57.56
64739;BME280;51175;51.186;0.276;2023-09-19T02:06:45;100506.78;;;19.18;57.59
64739;BME280;51175;51.186;0.276;2023-09-19T02:07:17;100501.41;;;19.18;57.51
64739;BME280;51175;51.186;0.276;2023-09-19T02:07:48;100510.22;;;19.18;57.69
64739;BME280;51175;51.186;0.276;2023-09-19T02:08:20;100504.09;;;19.18;57.78
64739;BME280;51175;51.186;0.276;2023-09-19T02:08:50;100505.97;;;19.17;57.36
64739;BME280;51175;51.186;0.276;2023-09-19T02:09:21;100506.78;;;19.18;57.74
64739;BME280;51175;51.186;0.276;2023-09-19T02:09:51;100506.78;;;19.18;57.49
64739;BME280;51175;51.186;0.276;2023-09-19T02:10:22;100505.97;;;19.17;57.50
64739;BME280;51175;51.186;0.276;2023-09-19T02:10:53;100510.22;;;19.18;57.86
64739;BME280;51175;51.186;0.276;2023-09-19T02:11:23;100506.78;;;19.18;57.77
64739;BME280;51175;51.186;0.276;2023-09-19T02:11:54;100504.09;;;19.18;57.42
64739;BME280;51175;51.186;0.276;2023-09-19T02:12:26;100506.78;;;19.18;57.71
64739;BME280;51175;51.186;0.276;2023-09-19T02:12:57;100496.84;;;19.18;57.54
64739;BME280;51175;51.186;0.276;2023-09-19T02:13:29;100494.97;;;19.19;57.88
64739;BME280;51175;51.186;0.276;2023-09-19T02:14:02;100502.19;;;19.18;57.57
64739;BME280;51175;51.186;0.276;2023-09-19T02:14:32;100496.84;;;19.18;57.68
64739;BME280;51175;51.186;0.276;2023-09-19T02:15:04;100496.84;;;19.18;57.54
64739;BME280;51175;51.186;0.276;2023-09-19T02:15:37;100496.06;;;19.18;57.71
64739;BME280;51175;51.186;0.276;2023-09-19T02:16:07;100488.81;;;19.18;57.69
64739;BME280;51175;51.186;0.276;2023-09-19T02:16:39;100490.72;;;19.18;57.61
64739;BME280;51175;51.186;0.276;2023-09-19T02:17:09;100500.31;;;19.19;57.38
64739;BME280;51175;51.186;0.276;2023-09-19T02:17:45;100488.03;;;19.18;57.74
64739;BME280;51175;51.186;0.276;2023-09-19T02:18:16;100494.97;;;19.19;58.01
64739;BME280;51175;51.186;0.276;2023-09-19T02:18:50;100492.28;;;19.19;57.94
64739;BME280;51175;51.186;0.276;2023-09-19T02:19:21;100497.63;;;19.19;57.94
64739;BME280;51175;51.186;0.276;2023-09-19T02:19:53;100499.50;;;19.18;57.67
64739;BME280;51175;51.186;0.276;2023-09-19T02:20:23;100500.31;;;19.19;57.89
64739;BME280;51175;51.186;0.276;2023-09-19T02:20:53;100500.31;;;19.19;57.65
64739;BME280;51175;51.186;0.276;2023-09-19T02:21:24;100497.63;;;19.19;57.85
64739;BME280;51175;51.186;0.276;2023-09-19T02:21:55;100495.75;;;19.19;57.69
64739;BME280;51175;51.186;0.276;2023-09-19T02:22:25;100503.00;;;19.19;57.99
64739;BME280;51175;51.186;0.276;2023-09-19T02:22:56;100505.66;;;19.19;57.97
64739;BME280;51175;51.186;0.276;2023-09-19T02:23:26;100494.16;;;19.18;57.91
64739;BME280;51175;51.186;0.276;2023-09-19T02:23:57;100505.66;;;19.19;57.95
64739;BME280;51175;51.186;0.276;2023-09-19T02:24:29;100506.47;;;19.19;57.75
64739;BME280;51175;51.186;0.276;2023-09-19T02:24:59;100501.09;;;19.19;57.95
64739;BME280;51175;51.186;0.276;2023-09-19T02:25:30;100499.19;;;19.20;58.04
64739;BME280;51175;51.186;0.276;2023-09-19T02:26:02;100501.88;;;19.20;57.87
64739;BME280;51175;51.186;0.276;2023-09-19T02:26:33;100501.09;;;19.19;57.72
64739;BME280;51175;51.186;0.276;2023-09-19T02:27:06;100499.50;;;19.18;58.02
64739;BME280;51175;51.186;0.276;2023-09-19T02:27:37;100502.19;;;19.18;57.80
64739;BME280;51175;51.186;0.276;2023-09-19T02:28:09;100503.78;;;19.19;58.04
64739;BME280;51175;51.186;0.276;2023-09-19T02:28:40;100504.88;;;19.18;57.90
64739;BME280;51175;51.186;0.276;2023-09-19T02:29:10;100507.53;;;19.18;57.59
64739;BME280;51175;51.186;0.276;2023-09-19T02:29:43;100507.53;;;19.18;57.69
64739;BME280;51175;51.186;0.276;2023-09-19T02:30:13;100505.66;;;19.19;57.69
64739;BME280;51175;51.186;0.276;2023-09-19T02:30:49;100512.91;;;19.18;57.80
64739;BME280;51175;51.186;0.276;2023-09-19T02:31:20;100514.81;;;19.18;57.55
64739;BME280;51175;51.186;0.276;2023-09-19T02:31:50;100509.44;;;19.18;57.62
64739;BME280;51175;51.186;0.276;2023-09-19T02:32:21;100512.13;;;19.18;57.87
64739;BME280;51175;51.186;0.276;2023-09-19T02:32:51;100510.22;;;19.18;57.50
64739;BME280;51175;51.186;0.276;2023-09-19T02:33:22;100510.22;;;19.18;57.46
64739;BME280;51175;51.186;0.276;2023-09-19T02:33:52;100511.34;;;19.17;57.91
64739;BME280;51175;51.186;0.276;2023-09-19T02:34:23;100509.78;;;19.16;57.72
64739;BME280;51175;51.186;0.276;2023-09-19T02:34:53;100510.53;;;19.17;57.59
64739;BME280;51175;51.186;0.276;2023-09-19T02:35:24;100515.88;;;19.17;57.70
64739;BME280;51175;51.186;0.276;2023-09-19T02:35:56;100515.13;;;19.16;57.74
64739;BME280;51175;51.186;0.276;2023-09-19T02:36:30;100515.88;;;19.17;57.90
64739;BME280;51175;51.186;0.276;2023-09-19T02:37:01;100507.09;;;19.16;57.94
64739;BME280;51175;51.186;0.276;2023-09-19T02:37:31;100512.44;;;19.16;57.91
64739;BME280;51175;51.186;0.276;2023-09-19T02:38:03;100517.00;;;19.16;57.69
64739;BME280;51175;51.186;0.276;2023-09-19T02:38:36;100511.66;;;19.16;57.62
64739;BME280;51175;51.186;0.276;2023-09-19T02:39:07;100512.78;;;19.15;57.92
64739;BME280;51175;51.186;0.276;2023-09-19T02:39:38;100515.13;;;19.16;57.55
64739;BME280;51175;51.186;0.276;2023-09-19T02:40:09;100508.97;;;19.16;57.51
64739;BME280;51175;51.186;0.276;2023-09-19T02:40:48;100513.53;;;19.15;57.68
64739;BME280;51175;51.186;0.276;2023-09-19T02:41:19;100509.28;;;19.14;57.54
64739;BME280;51175;51.186;0.276;2023-09-19T02:41:49;100518.88;;;19.15;57.61
64739;BME280;51175;51.186;0.276;2023-09-19T02:42:20;100512.78;;;19.15;57.79
64739;BME280;51175;51.186;0.276;2023-09-19T02:42:54;100518.13;;;19.15;57.77
64739;BME280;51175;51.186;0.276;2023-09-19T02:43:25;100515.75;;;19.13;57.72
64739;BME280;51175;51.186;0.276;2023-09-19T02:43:56;100517.31;;;19.14;57.72
64739;BME280;51175;51.186;0.276;2023-09-19T02:44:27;100511.97;;;19.14;57.48
64739;BME280;51175;51.186;0.276;2023-09-19T02:44:57;100516.53;;;19.14;57.42
64739;BME280;51175;51.186;0.276;2023-09-19T02:45:28;100517.31;;;19.14;57.64
64739;BME280;51175;51.186;0.276;2023-09-19T02:46:00;100518.44;;;19.13;57.70
64739;BME280;51175;51.186;0.276;2023-09-19T02:46:30;100514.97;;;19.13;57.58
64739;BME280;51175;51.186;0.276;2023-09-19T02:47:00;100517.63;;;19.13;57.39
64739;BME280;51175;51.186;0.276;2023-09-19T02:47:31;100523.00;;;19.13;57.61
64739;BME280;51175;51.186;0.276;2023-09-19T02:48:01;100527.56;;;19.12;57.77
64739;BME280;51175;51.186;0.276;2023-09-19T02:48:32;100533.69;;;19.13;57.83
64739;BME280;51175;51.186;0.276;2023-09-19T02:49:04;100529.47;;;19.12;57.36
64739;BME280;51175;51.186;0.276;2023-09-19T02:49:37;100527.56;;;19.12;57.60
64739;BME280;51175;51.186;0.276;2023-09-19T02:50:08;100533.22;;;19.10;57.54
64739;BME280;51175;51.186;0.276;2023-09-19T02:50:42;100542.03;;;19.11;57.76
64739;BME280;51175;51.186;0.276;2023-09-19T02:51:13;100536.69;;;19.11;57.97
64739;BME280;51175;51.186;0.276;2023-09-19T02:51:44;100534.03;;;19.11;57.72
64739;BME280;51175;51.186;0.276;2023-09-19T02:52:14;100534.81;;;19.12;57.67
64739;BME280;51175;51.186;0.276;2023-09-19T02:52:46;100540.16;;;19.12;57.58
64739;BME280;51175;51.186;0.276;2023-09-19T02:53:19;100536.69;;;19.11;57.84
64739;BME280;51175;51.186;0.276;2023-09-19T02:53:50;100539.38;;;19.11;58.01
64739;BME280;51175;51.186;0.276;2023-09-19T02:54:22;100535.13;;;19.10;57.92
64739;BME280;51175;51.186;0.276;2023-09-19T02:54:53;100540.94;;;19.12;57.82
64739;BME280;51175;51.186;0.276;2023-09-19T02:55:23;100539.38;;;19.11;57.63
64739;BME280;51175;51.186;0.276;2023-09-19T02:55:54;100538.56;;;19.10;57.83
64739;BME280;51175;51.186;0.276;2023-09-19T02:56:24;100532.44;;;19.10;57.81
64739;BME280;51175;51.186;0.276;2023-09-19T02:56:55;100535.13;;;19.10;57.62
64739;BME280;51175;51.186;0.276;2023-09-19T02:57:25;100536.69;;;19.11;57.61
64739;BME280;51175;51.186;0.276;2023-09-19T02:57:56;100533.22;;;19.10;57.73
64739;BME280;51175;51.186;0.276;2023-09-19T02:58:26;100526.31;;;19.09;57.60
64739;BME280;51175;51.186;0.276;2023-09-19T02:58:58;100532.44;;;19.10;57.87
64739;BME280;51175;51.186;0.276;2023-09-19T02:59:31;100529.78;;;19.10;57.63
64739;BME280;51175;51.186;0.276;2023-09-19T03:00:03;100528.97;;;19.09;57.68
64739;BME280;51175;51.186;0.276;2023-09-19T03:00:34;100526.31;;;19.09;57.94
64739;BME280;51175;51.186;0.276;2023-09-19T03:01:09;100534.34;;;19.09;57.61
64739;BME280;51175;51.186;0.276;2023-09-19T03:01:44;100528.19;;;19.09;57.92
64739;BME280;51175;51.186;0.276;2023-09-19T03:02:18;100529.28;;;19.08;57.53
64739;BME280;51175;51.186;0.276;2023-09-19T03:02:50;100532.75;;;19.08;57.93
64739;BME280;51175;51.186;0.276;2023-09-19T03:03:21;100530.06;;;19.08;57.89
64739;BME280;51175;51.186;0.276;2023-09-19T03:03:53;100531.66;;;19.09;57.77
64739;BME280;51175;51.186;0.276;2023-09-19T03:04:23;100528.19;;;19.09;57.43